CheckWX is a tool to help pilots better visualize weather data.  It is not intended as a substitute for an official pre-flight weather briefing.

21:01:06 UTC

KDMA METAR
Davis Monthan AFB Airport
Tucson, Arizona, USA
Current

13 mins ago

KDMA 202048Z AUTO 22016G21KT 10SM CLR 31/M05 A2988 RMK AO2 WSHFT 45 SLP078 $
Observed
Apr-20 @ 20:48 UTC
Wind
  • 220° at 16 KTS
  • Gusting to 21 KTS
Visibility
10 SM
Flight Rules
VFR
Cloud Levels
  • Clear skies
Temperature
31°C / 88°F
Dewpoint
-5°C / 23°F
Humidity
9%
Altimeter
29.88" Hg
Pressure
1011.82 hPa
Previous

28 mins ago

KDMA 202033Z AUTO 20016G25KT 10SM CLR 31/M05 A2988 RMK AO2 WSHFT 18 SLP078 $
Observed
Apr-20 @ 20:33 UTC
Wind
  • 200° at 16 KTS
  • Gusting to 25 KTS
Visibility
10 SM
Flight Rules
VFR
Cloud Levels
  • Clear skies
Temperature
31°C / 88°F
Dewpoint
-5°C / 23°F
Humidity
9%
Altimeter
29.88" Hg
Pressure
1011.82 hPa
Previous

48 mins ago

KDMA 202013Z AUTO 22016G24KT 10SM CLR 31/M05 A2989 RMK AO2 WSHFT 05 SLP081 $
Observed
Apr-20 @ 20:13 UTC
Wind
  • 220° at 16 KTS
  • Gusting to 24 KTS
Visibility
10 SM
Flight Rules
VFR
Cloud Levels
  • Clear skies
Temperature
31°C / 88°F
Dewpoint
-5°C / 23°F
Humidity
9%
Altimeter
29.89" Hg
Pressure
1012.22 hPa